Terminal Aerodrome Forecast
Issued by NWS Jacksonville, FL

Home | Current Version | Previous Version | Text Only | Print | Product List | Glossary On
Versions: 1 2 3 4 5 6 7 8 9 10 11 12 13 14 15
600
FTUS42 KJAX 271012 AAD
TAFJAX
TAF AMD
KJAX 271012Z 2710/2806 33003KT P6SM SCT003
      TEMPO 2710/2712 3SM BR BKN003
     FM271300 32006KT P6SM SCT035
     FM271900 11008KT P6SM SCT050=

USA.gov is the U.S. government's official web portal to all federal, state and local government web resources and services.